createdAt,value
2023-02-14T00:01:38.197Z,30.42
2023-02-14T00:06:38.341Z,34.50
2023-02-14T00:11:35.283Z,30.85
2023-02-14T00:16:32.802Z,31.08
2023-02-14T00:21:30.804Z,35.42
2023-02-14T00:26:27.770Z,41.47
2023-02-14T00:31:24.860Z,33.67
2023-02-14T00:36:22.359Z,32.85
2023-02-14T00:41:21.372Z,35.33
2023-02-14T00:46:19.405Z,31.00
2023-02-14T00:51:17.848Z,37.85
2023-02-14T00:56:15.651Z,32.95
2023-02-14T01:01:16.066Z,37.80
2023-02-14T01:06:13.225Z,33.55
2023-02-14T01:11:12.330Z,29.08
2023-02-14T01:16:12.456Z,31.08
2023-02-14T01:21:15.391Z,30.13
2023-02-14T01:26:12.961Z,30.10
2023-02-14T01:31:12.320Z,26.80
2023-02-14T01:36:17.343Z,27.70
2023-02-14T01:41:14.359Z,31.67
2023-02-14T01:46:11.316Z,27.23
2023-02-14T01:51:09.580Z,31.58
2023-02-14T01:56:11.530Z,30.10
2023-02-14T02:01:08.647Z,28.00
2023-02-14T02:06:12.652Z,29.83
2023-02-14T02:11:10.264Z,31.85
2023-02-14T02:16:21.742Z,25.35
2023-02-14T02:21:52.074Z,29.02
2023-02-14T02:27:19.284Z,31.77
2023-02-14T02:32:37.719Z,27.83
2023-02-14T02:37:46.115Z,26.85
2023-02-14T02:42:48.917Z,28.48
2023-02-14T02:47:55.454Z,25.77
2023-02-14T02:53:03.890Z,28.27
2023-02-14T02:58:04.650Z,28.63
2023-02-14T03:03:31.215Z,26.13
2023-02-14T03:08:28.753Z,29.65
2023-02-14T03:13:51.488Z,28.55
2023-02-14T03:19:02.932Z,25.00
2023-02-14T03:24:08.892Z,26.10
2023-02-14T03:29:16.019Z,30.73
2023-02-14T03:34:21.079Z,30.40
2023-02-14T03:39:24.763Z,26.63
2023-02-14T03:44:27.862Z,25.75
2023-02-14T03:49:30.981Z,32.10
2023-02-14T03:54:30.226Z,29.63
2023-02-14T03:59:29.456Z,27.90
2023-02-14T04:04:30.799Z,32.65
2023-02-14T04:09:28.734Z,28.75
2023-02-14T04:14:28.856Z,26.33
2023-02-14T04:19:25.964Z,30.63
2023-02-14T04:24:22.847Z,30.73
2023-02-14T04:29:21.097Z,28.50
2023-02-14T04:34:18.415Z,29.65
2023-02-14T04:39:15.733Z,25.65
2023-02-14T04:44:12.793Z,28.33
2023-02-14T04:49:10.647Z,29.80
2023-02-14T04:54:07.684Z,31.38
2023-02-14T04:59:06.485Z,32.63
2023-02-14T05:04:03.639Z,35.20
2023-02-14T05:09:02.334Z,31.98
2023-02-14T05:13:59.440Z,35.67
2023-02-14T05:18:56.381Z,36.92
2023-02-14T05:23:53.386Z,32.95
2023-02-14T05:28:51.157Z,30.05
2023-02-14T05:33:48.083Z,25.27
2023-02-14T05:38:45.075Z,32.95
2023-02-14T05:43:44.401Z,27.30
2023-02-14T05:48:42.079Z,28.77
2023-02-14T05:53:38.883Z,32.35
2023-02-14T05:58:35.857Z,33.67
2023-02-14T06:03:32.733Z,25.98
2023-02-14T06:08:30.256Z,30.05
2023-02-14T06:13:27.066Z,27.33
2023-02-14T06:18:26.900Z,30.10
2023-02-14T06:23:23.760Z,27.52
2023-02-14T06:28:22.281Z,47.85
2023-02-14T06:33:19.365Z,30.88
2023-02-14T06:38:16.742Z,28.85
2023-02-14T06:43:13.627Z,29.50
2023-02-14T06:48:11.234Z,29.77
2023-02-14T06:53:08.334Z,28.17
2023-02-14T06:58:05.551Z,32.13
2023-02-14T07:03:02.415Z,35.85
2023-02-14T07:08:00.502Z,32.65
2023-02-14T07:12:57.352Z,37.75
2023-02-14T07:17:54.364Z,35.80
2023-02-14T07:22:51.235Z,43.92
2023-02-14T07:27:48.760Z,36.70
2023-02-14T07:32:45.577Z,40.95
2023-02-14T07:37:42.314Z,47.08
2023-02-14T07:42:39.275Z,43.25
2023-02-14T07:47:37.018Z,39.72
2023-02-14T07:52:34.124Z,37.90
2023-02-14T07:57:31.074Z,33.22
2023-02-14T08:02:28.041Z,35.28
2023-02-14T08:07:25.586Z,34.42
2023-02-14T08:12:40.725Z,37.88
2023-02-14T08:17:39.385Z,34.30
2023-02-14T08:22:36.965Z,38.65
2023-02-14T08:27:33.699Z,36.20
2023-02-14T08:32:30.860Z,32.92
2023-02-14T08:37:27.718Z,39.95
2023-02-14T08:42:25.263Z,29.15
2023-02-14T08:47:22.067Z,34.63
2023-02-14T08:52:18.818Z,33.88
2023-02-14T08:57:15.554Z,39.38
2023-02-14T09:02:13.655Z,38.58
2023-02-14T09:07:11.699Z,36.83
2023-02-14T09:12:11.700Z,32.65
2023-02-14T09:17:08.797Z,41.00
2023-02-14T09:22:10.165Z,33.72
2023-02-14T09:27:07.761Z,31.50
2023-02-14T09:32:06.474Z,31.48
2023-02-14T09:37:05.451Z,31.65
2023-02-14T09:42:29.829Z,30.42
2023-02-14T09:47:35.909Z,34.03
2023-02-14T09:52:33.324Z,28.60
2023-02-14T09:57:38.570Z,33.58
2023-02-14T10:02:43.605Z,35.80
2023-02-14T10:07:56.064Z,31.73
2023-02-14T10:12:59.589Z,30.80
2023-02-14T10:18:01.772Z,37.72
2023-02-14T10:23:05.886Z,33.10
2023-02-14T10:28:04.482Z,28.77
2023-02-14T10:33:08.253Z,33.38
2023-02-14T10:38:17.074Z,33.83
2023-02-14T10:43:38.080Z,26.52
2023-02-14T10:48:46.953Z,32.28
2023-02-14T10:53:59.365Z,26.08
2023-02-14T10:58:59.201Z,29.35
2023-02-14T11:04:03.411Z,33.55
2023-02-14T11:09:00.751Z,31.50
2023-02-14T11:13:58.686Z,29.25
2023-02-14T11:19:09.821Z,33.25
2023-02-14T11:24:17.965Z,26.95
2023-02-14T11:29:27.988Z,29.10
2023-02-14T11:34:40.181Z,35.83
2023-02-14T11:52:19.893Z,24.77
2023-02-14T11:57:42.248Z,24.33
2023-02-14T12:03:50.241Z,25.55
2023-02-14T12:15:48.730Z,30.08
2023-02-14T12:21:20.374Z,29.38
2023-02-14T12:38:47.634Z,33.08
2023-02-14T13:05:07.897Z,34.72
2023-02-14T13:34:50.255Z,43.13
2023-02-14T13:40:54.692Z,40.38
2023-02-14T13:47:06.104Z,44.08
2023-02-14T13:54:20.780Z,34.58
2023-02-14T14:06:14.011Z,34.13
2023-02-14T14:12:10.793Z,40.75
2023-02-14T14:17:38.300Z,40.90
2023-02-14T14:34:26.186Z,45.47
2023-02-14T14:40:56.119Z,43.65
2023-02-14T14:46:46.672Z,38.53
2023-02-14T14:52:12.721Z,34.78
2023-02-14T14:57:27.405Z,36.58
2023-02-14T15:02:35.812Z,33.65
2023-02-14T15:19:12.158Z,43.70
2023-02-14T15:24:31.344Z,47.05
2023-02-14T15:30:04.385Z,34.53
2023-02-14T15:35:46.562Z,41.53
2023-02-14T15:40:46.600Z,57.03
2023-02-14T15:46:47.679Z,46.90
2023-02-14T15:52:25.386Z,48.95
2023-02-14T15:57:43.046Z,53.75
2023-02-14T16:02:54.110Z,56.65
2023-02-14T16:08:39.010Z,61.25
2023-02-14T16:13:42.107Z,66.38
2023-02-14T16:19:06.919Z,76.32
2023-02-14T16:25:03.293Z,76.03
2023-02-14T16:30:15.965Z,90.88
2023-02-14T16:35:26.714Z,84.70
2023-02-14T16:40:50.299Z,90.53
2023-02-14T16:46:27.662Z,91.55
2023-02-14T16:58:05.720Z,79.40
2023-02-14T17:03:16.814Z,83.18
2023-02-14T17:08:33.703Z,92.40
2023-02-14T17:14:17.314Z,95.75
2023-02-14T17:19:33.866Z,75.55
2023-02-14T17:27:29.585Z,111.88
2023-02-14T17:31:54.435Z,97.50
2023-02-14T17:37:35.264Z,101.60
2023-02-14T18:02:37.586Z,82.50
2023-02-14T18:20:27.816Z,54.35
2023-02-14T18:31:55.940Z,50.55
2023-02-14T18:37:05.906Z,49.33
2023-02-14T18:42:40.210Z,45.33
2023-02-14T18:48:16.116Z,49.20
2023-02-14T19:00:53.465Z,49.67
2023-02-14T19:05:03.091Z,41.03
2023-02-14T19:10:49.210Z,45.13
2023-02-14T19:16:56.966Z,44.17
2023-02-14T19:27:43.027Z,43.90
2023-02-14T19:32:51.422Z,42.20
2023-02-14T19:38:23.801Z,60.35
2023-02-14T19:43:43.837Z,37.60
2023-02-14T19:49:21.708Z,40.00
2023-02-14T19:55:24.013Z,38.33
2023-02-14T20:00:45.572Z,39.83
2023-02-14T20:06:18.546Z,33.13
2023-02-14T20:11:35.855Z,32.08
2023-02-14T20:23:43.590Z,32.38
2023-02-14T20:29:17.898Z,31.42
2023-02-14T20:40:30.132Z,26.98
2023-02-14T20:45:51.201Z,31.67
2023-02-14T20:51:06.983Z,34.55
2023-02-14T21:02:21.972Z,27.50
2023-02-14T21:07:36.949Z,32.88
2023-02-14T21:13:43.038Z,30.67
2023-02-14T21:19:01.875Z,29.50
2023-02-14T21:24:16.694Z,30.73
2023-02-14T21:29:14.679Z,31.77
2023-02-14T21:34:24.336Z,30.10
2023-02-14T21:39:31.275Z,32.20
2023-02-14T21:44:53.694Z,31.70
2023-02-14T21:50:12.699Z,27.33
2023-02-14T22:01:35.827Z,31.30
2023-02-14T22:06:59.668Z,30.92
2023-02-14T22:12:21.016Z,31.52
2023-02-14T22:23:33.481Z,32.40
2023-02-14T22:28:58.301Z,32.50
2023-02-14T22:34:00.669Z,33.83
2023-02-14T22:39:12.911Z,35.58
2023-02-14T22:44:25.841Z,36.25
2023-02-14T22:49:56.181Z,31.92
2023-02-14T22:55:04.118Z,28.58
2023-02-14T23:00:11.314Z,31.42
2023-02-14T23:05:19.990Z,30.90
2023-02-14T23:10:25.912Z,33.25
2023-02-14T23:15:45.059Z,38.40
2023-02-14T23:21:05.478Z,31.15
2023-02-14T23:26:03.115Z,35.17
2023-02-14T23:31:12.041Z,32.35
2023-02-14T23:36:09.886Z,33.90
2023-02-14T23:41:28.865Z,32.13
2023-02-14T23:46:30.838Z,30.15
2023-02-14T23:51:31.726Z,26.90
2023-02-14T23:56:29.076Z,25.85
